Time;durP1;ratioP1;P1;durP2;ratioP2;P2;SDS_P1;SDS_P2;PMS_P1;PMS_P2;Temp;Humidity;BMP_temperature;BMP_pressure;BME280_temperature;BME280_humidity;BME280_pressure;Samples;Min_cycle;Max_cycle;Signal;HPM_P1;HPM_P2
2021/09/21 17:07:24;;;;;;;;;;;;;;;14.36;53.42;101197.22;1389399;89;20220;-96
2021/09/21 17:09:52;;;;;;;;;;;;;;;14.31;54.31;101192.01;1365980;92;20236;-94
2021/09/21 17:12:20;;;;;;;;;;;;;;;14.25;54.90;101195.28;1365603;91;20310;-96
2021/09/21 17:15:00;;;;;;;;;;;;;;;14.20;55.76;101190.41;1372447;91;20763;-96
2021/09/21 17:17:27;;;;;;;;;;;;;;;14.16;54.96;101194.38;1400718;88;20792;-94
2021/09/21 17:19:54;;;;;;;;;;;;;;;14.13;54.88;101194.68;1393803;88;20294;-94
2021/09/21 17:22:22;;;;;;;;;;;;;;;14.07;55.91;101193.46;1381125;89;20341;-93
2021/09/21 17:24:49;;;;;;;;;;;;;;;14.07;55.78;101195.27;1377951;90;21166;-94
2021/09/21 17:27:17;;;;;;;;;;;;;;;14.01;56.25;101204.69;1377492;90;20282;-94
2021/09/21 17:29:44;;;;;;;;;;;;;;;13.97;56.30;101209.48;1378128;90;20750;-94
2021/09/21 17:32:11;;;;;;;;;;;;;;;13.95;56.98;101210.14;1377237;90;20816;-93
2021/09/21 17:34:39;;;;;;;;;;;;;;;13.94;57.02;101210.28;1364422;90;20296;-94
2021/09/21 17:37:06;;;;;;;;;;;;;;;13.91;57.76;101215.41;1377984;90;20787;-93
2021/09/21 17:39:44;;;;;;;;;;;;;;;13.87;57.95;101211.39;1377843;90;20772;-93
2021/09/21 17:42:13;;;;;;;;;;;;;;;13.82;58.30;101220.30;1377399;90;20274;-93
2021/09/21 17:44:40;;;;;;;;;;;;;;;13.78;58.71;101209.59;1377331;90;20376;-93
2021/09/21 17:47:13;;;;;;;;;;;;;;;13.76;58.15;101207.10;1380485;90;20360;-90
2021/09/21 17:49:40;;;;;;;;;;;;;;;13.77;58.21;101205.27;1383961;89;20242;-92
2021/09/21 17:52:16;;;;;;;;;;;;;;;13.78;58.25;101210.92;1382999;89;20272;-89
2021/09/21 17:54:43;;;;;;;;;;;;;;;13.78;58.84;101204.27;1382810;89;20218;-89
2021/09/21 17:57:14;;;;;;;;;;;;;;;13.79;59.21;101203.31;1368265;91;20732;-90
2021/09/21 17:59:42;;;;;;;;;;;;;;;13.80;59.62;101206.30;1383370;89;20279;-91
2021/09/21 18:02:08;;;;;;;;;;;;;;;13.81;58.73;101205.34;1368535;90;20241;-91
2021/09/21 18:08:17;;;;;;;;;;;;;;;13.76;60.09;101204.94;1380623;87;20761;-90
2021/09/21 18:10:45;;;;;;;;;;;;;;;13.66;61.20;101202.81;1360581;91;20343;-91
2021/09/21 18:13:12;;;;;;;;;;;;;;;13.62;61.08;101213.42;1377163;91;20828;-93
2021/09/21 18:16:22;;;;;;;;;;;;;;;13.57;61.68;101211.19;1374249;90;20786;-93
2021/09/21 18:19:12;;;;;;;;;;;;;;;13.53;61.67;101211.99;1373902;91;20308;-91
2021/09/21 18:22:18;;;;;;;;;;;;;;;13.53;61.34;101210.66;1373891;89;20345;-91
2021/09/21 18:24:45;;;;;;;;;;;;;;;13.50;61.82;101206.97;1369237;90;20345;-91
2021/09/21 18:27:13;;;;;;;;;;;;;;;13.48;62.38;101209.42;1369454;90;20265;-91
2021/09/21 18:29:43;;;;;;;;;;;;;;;13.45;62.62;101210.55;1369126;90;20264;-92
2021/09/21 18:32:16;;;;;;;;;;;;;;;13.40;62.84;101204.84;1370045;90;20249;-90
2021/09/21 18:38:46;;;;;;;;;;;;;;;13.42;62.48;101207.36;1371816;90;20368;-92
2021/09/21 18:41:13;;;;;;;;;;;;;;;13.43;63.52;101203.20;1379405;89;20308;-91
2021/09/21 18:43:41;;;;;;;;;;;;;;;13.43;64.30;101200.55;1378890;89;20256;-94
2021/09/21 18:46:08;;;;;;;;;;;;;;;13.45;64.94;101199.09;1379214;89;20784;-93
2021/09/21 18:48:57;;;;;;;;;;;;;;;13.46;64.42;101198.92;1378853;89;20958;-90
2021/09/21 18:51:33;;;;;;;;;;;;;;;13.49;64.18;101201.31;1376911;89;20339;-90
2021/09/21 18:54:27;;;;;;;;;;;;;;;13.51;62.93;101204.64;1356257;91;21598;-90
2021/09/21 18:56:55;;;;;;;;;;;;;;;13.54;63.99;101188.89;1367638;90;20384;-91
2021/09/21 18:59:24;;;;;;;;;;;;;;;13.53;64.00;101194.70;1366130;90;20258;-90
2021/09/21 19:01:54;;;;;;;;;;;;;;;13.51;63.25;101192.67;1366632;90;20756;-92
2021/09/21 19:04:35;;;;;;;;;;;;;;;13.48;64.83;101196.96;1365332;90;20839;-92
2021/09/21 19:10:32;;;;;;;;;;;;;;;13.40;64.68;101197.36;1379340;88;20893;-92
2021/09/21 19:13:07;;;;;;;;;;;;;;;13.34;65.10;101198.78;1364993;90;20242;-92
2021/09/21 19:15:32;;;;;;;;;;;;;;;13.28;65.35;101196.21;1367604;90;20228;-92
2021/09/21 19:18:00;;;;;;;;;;;;;;;13.25;65.00;101196.51;1362891;90;20289;-91
2021/09/21 19:20:30;;;;;;;;;;;;;;;13.22;64.66;101198.09;1362396;91;20274;-92
2021/09/21 19:22:58;;;;;;;;;;;;;;;13.20;65.04;101196.07;1347125;90;20930;-92
2021/09/21 19:25:27;;;;;;;;;;;;;;;13.18;64.98;101195.90;1354345;92;20350;-92
2021/09/21 19:27:54;;;;;;;;;;;;;;;13.13;65.62;101198.15;1365212;91;20747;-92
2021/09/21 19:30:24;;;;;;;;;;;;;;;13.02;66.60;101201.31;1365621;90;20258;-93
2021/09/21 19:32:53;;;;;;;;;;;;;;;12.99;66.54;101194.13;1370894;90;20287;-93
2021/09/21 19:35:21;;;;;;;;;;;;;;;12.95;66.24;101192.27;1364355;91;20346;-91
2021/09/21 19:37:52;;;;;;;;;;;;;;;12.91;66.33;101184.22;1369059;90;20242;-89
2021/09/21 19:40:21;;;;;;;;;;;;;;;12.89;65.33;101182.22;1355809;90;20343;-89
2021/09/21 19:42:49;;;;;;;;;;;;;;;12.91;64.31;101186.04;1367739;90;20874;-89
2021/09/21 19:45:18;;;;;;;;;;;;;;;12.86;66.42;101181.17;1365404;90;20332;-88
2021/09/21 19:47:47;;;;;;;;;;;;;;;12.75;66.36;101189.31;1365763;90;20244;-88
2021/09/21 19:50:20;;;;;;;;;;;;;;;12.58;67.57;101193.03;1361339;90;20794;-89
2021/09/21 19:52:51;;;;;;;;;;;;;;;12.46;67.74;101190.19;1370587;90;20234;-89
2021/09/21 19:55:21;;;;;;;;;;;;;;;12.38;68.35;101192.21;1344366;92;20260;-89
2021/09/21 19:57:49;;;;;;;;;;;;;;;12.27;69.45;101187.05;1321992;94;20276;-89
2021/09/21 20:00:17;;;;;;;;;;;;;;;12.15;70.39;101186.34;1324729;94;20247;-90
2021/09/21 20:02:46;;;;;;;;;;;;;;;12.06;69.94;101184.53;1353909;91;20251;-89
2021/09/21 20:05:13;;;;;;;;;;;;;;;12.03;69.88;101183.48;1350100;90;20789;-89
2021/09/21 20:07:41;;;;;;;;;;;;;;;12.01;69.82;101176.15;1343670;91;20243;-90
2021/09/21 20:13:27;;;;;;;;;;;;;;;11.98;70.42;101177.75;1373895;89;20257;-90
2021/09/21 20:15:54;;;;;;;;;;;;;;;11.90;70.75;101182.91;1370355;90;20257;-90
2021/09/21 20:18:24;;;;;;;;;;;;;;;11.85;71.02;101179.79;1380726;89;20754;-91
2021/09/21 20:20:54;;;;;;;;;;;;;;;11.84;70.61;101178.12;1369601;90;20349;-91
2021/09/21 20:23:22;;;;;;;;;;;;;;;11.82;70.92;101181.39;1375484;89;20293;-91
2021/09/21 20:25:50;;;;;;;;;;;;;;;11.78;71.84;101175.53;1372725;90;21273;-91
2021/09/21 20:28:22;;;;;;;;;;;;;;;11.75;71.45;101176.64;1379105;90;20318;-90
2021/09/21 20:30:59;;;;;;;;;;;;;;;11.75;71.53;101181.94;1373625;89;20248;-90
2021/09/21 20:33:27;;;;;;;;;;;;;;;11.68;71.87;101179.96;1374895;89;20354;-92
2021/09/21 20:35:56;;;;;;;;;;;;;;;11.48;73.14;101180.43;1380277;89;20339;-92
2021/09/21 20:38:24;;;;;;;;;;;;;;;11.46;72.33;101179.72;1369361;90;20377;-91
2021/09/21 20:41:01;;;;;;;;;;;;;;;11.41;73.18;101179.27;1374068;90;20241;-90
2021/09/21 20:43:30;;;;;;;;;;;;;;;11.40;71.63;101174.95;1374581;91;21360;-91
2021/09/21 20:45:59;;;;;;;;;;;;;;;11.35;72.25;101174.52;1370733;90;20383;-91
2021/09/21 20:48:27;;;;;;;;;;;;;;;11.32;72.55;101172.97;1366587;90;20241;-91
2021/09/21 20:50:54;;;;;;;;;;;;;;;11.29;74.10;101166.13;1370436;90;20838;-91
2021/09/21 20:53:21;;;;;;;;;;;;;;;11.30;73.06;101163.81;1370826;90;20755;-90
2021/09/21 20:55:48;;;;;;;;;;;;;;;11.27;74.51;101161.92;1380534;89;20806;-90
2021/09/21 20:58:15;;;;;;;;;;;;;;;11.24;73.83;101160.88;1382787;88;20247;-89
2021/09/21 21:00:43;;;;;;;;;;;;;;;11.23;74.38;101174.61;1388225;88;20223;-88
2021/09/21 21:03:16;;;;;;;;;;;;;;;11.19;74.63;101167.91;1401163;88;20365;-89
2021/09/21 21:05:43;;;;;;;;;;;;;;;11.14;75.13;101166.14;1400383;88;20350;-89
2021/09/21 21:08:10;;;;;;;;;;;;;;;11.10;74.66;101160.74;1381949;90;20982;-91
2021/09/21 21:11:02;;;;;;;;;;;;;;;11.07;74.79;101164.49;1398004;88;20246;-90
2021/09/21 21:13:29;;;;;;;;;;;;;;;11.05;74.97;101157.67;1403728;87;20358;-90
2021/09/21 21:15:56;;;;;;;;;;;;;;;11.04;74.67;101158.63;1393733;88;20826;-90
2021/09/21 21:18:23;;;;;;;;;;;;;;;11.06;74.25;101151.40;1384431;88;20264;-89
2021/09/21 21:21:08;;;;;;;;;;;;;;;11.12;74.78;101152.19;1383523;90;20975;-91
2021/09/21 21:23:42;;;;;;;;;;;;;;;11.14;75.16;101154.72;1361996;91;21206;-93
2021/09/21 21:29:47;;;;;;;;;;;;;;;11.12;75.90;101157.48;1381096;89;20226;-91
2021/09/21 21:32:36;;;;;;;;;;;;;;;;;;;;;
2021/09/21 21:35:22;;;;;;;;;;;;;;;11.06;75.97;101148.75;1383000;88;20375;-90
2021/09/21 21:38:05;;;;;;;;;;;;;;;11.08;75.45;101141.52;1383779;88;21191;-90
2021/09/21 21:40:32;;;;;;;;;;;;;;;11.13;75.91;101139.28;1376327;88;20241;-89
2021/09/21 21:43:05;;;;;;;;;;;;;;;11.18;75.63;101139.72;1381933;89;20240;-90
2021/09/21 21:45:33;;;;;;;;;;;;;;;11.21;75.74;101142.10;1382444;89;20805;-90
2021/09/21 21:48:01;;;;;;;;;;;;;;;11.27;75.00;101140.23;1370576;89;20347;-90
2021/09/21 21:50:28;;;;;;;;;;;;;;;11.35;74.96;101142.72;1364785;90;20270;-90
2021/09/21 21:52:56;;;;;;;;;;;;;;;11.36;74.80;101142.56;1366545;91;20243;-90
2021/09/21 21:55:23;;;;;;;;;;;;;;;11.42;74.14;101143.84;1348062;91;20377;-91
2021/09/21 21:57:56;;;;;;;;;;;;;;;11.49;73.99;101143.66;1383182;90;21145;-90
2021/09/21 22:00:33;;;;;;;;;;;;;;;11.56;73.42;101139.47;1381406;88;21266;-90
2021/09/21 22:03:01;;;;;;;;;;;;;;;11.60;73.13;101135.59;1379312;90;20330;-90
2021/09/21 22:05:31;;;;;;;;;;;;;;;11.65;72.93;101140.00;1383420;88;20263;-91
2021/09/21 22:07:59;;;;;;;;;;;;;;;11.65;72.62;101137.35;1380315;89;20362;-90
2021/09/21 22:10:27;;;;;;;;;;;;;;;11.66;72.52;101139.02;1381709;89;20279;-90
2021/09/21 22:16:25;;;;;;;;;;;;;;;11.72;71.71;101133.16;1387518;88;20293;-87
2021/09/21 22:18:59;;;;;;;;;;;;;;;11.73;73.08;101134.83;1386567;89;20255;-87
2021/09/21 22:21:26;;;;;;;;;;;;;;;11.68;73.42;101129.58;1386164;89;20263;-90
2021/09/21 22:24:06;;;;;;;;;;;;;;;11.62;73.51;101133.62;1385874;89;20871;-91
2021/09/21 22:26:32;;;;;;;;;;;;;;;11.53;74.85;101129.14;1386273;89;20255;-89
2021/09/21 22:28:59;;;;;;;;;;;;;;;11.44;73.97;101125.99;1366997;92;20248;-90
2021/09/21 22:31:27;;;;;;;;;;;;;;;11.41;73.75;101123.12;1386540;89;20352;-89
2021/09/21 22:33:55;;;;;;;;;;;;;;;11.41;75.29;101120.47;1386501;89;20301;-89
2021/09/21 22:36:22;;;;;;;;;;;;;;;11.43;75.02;101114.56;1386239;89;20337;-89
2021/09/21 22:38:49;;;;;;;;;;;;;;;11.42;75.83;101122.63;1386761;89;20385;-88
2021/09/21 22:41:22;;;;;;;;;;;;;;;11.36;75.79;101116.55;1386451;89;20806;-88
2021/09/21 22:43:52;;;;;;;;;;;;;;;11.28;75.95;101111.45;1387294;89;20348;-88
2021/09/21 22:46:19;;;;;;;;;;;;;;;11.25;75.76;101109.08;1387202;89;20306;-88
2021/09/21 22:48:46;;;;;;;;;;;;;;;11.26;76.04;101110.75;1386662;89;20292;-87
2021/09/21 22:51:13;;;;;;;;;;;;;;;11.24;75.83;101114.01;1387688;89;20822;-87
2021/09/21 22:53:46;;;;;;;;;;;;;;;11.24;75.91;101116.66;1387105;89;20300;-87
2021/09/21 22:56:13;;;;;;;;;;;;;;;11.25;76.11;101108.25;1386497;89;20746;-87
2021/09/21 22:58:41;;;;;;;;;;;;;;;11.23;77.13;101105.72;1386465;89;20404;-87
2021/09/21 23:01:08;;;;;;;;;;;;;;;11.23;77.52;101116.32;1386540;88;20367;-87
2021/09/21 23:03:35;;;;;;;;;;;;;;;11.15;78.14;101113.98;1386762;89;20336;-89
2021/09/21 23:06:02;;;;;;;;;;;;;;;11.16;77.76;101116.48;1386584;89;20829;-88
2021/09/21 23:08:29;;;;;;;;;;;;;;;11.13;78.92;101114.60;1386443;89;20306;-89
2021/09/21 23:10:56;;;;;;;;;;;;;;;11.16;77.11;101121.78;1386457;89;20248;-90
2021/09/21 23:13:23;;;;;;;;;;;;;;;11.17;77.60;101116.86;1386282;89;20241;-90
2021/09/21 23:15:49;;;;;;;;;;;;;;;11.15;76.61;101113.50;1385380;89;20256;-88
2021/09/21 23:18:17;;;;;;;;;;;;;;;11.15;77.23;101113.50;1383326;89;20308;-90
2021/09/21 23:20:44;;;;;;;;;;;;;;;11.17;77.05;101108.91;1382848;89;20308;-90
2021/09/21 23:23:14;;;;;;;;;;;;;;;11.13;77.08;101106.16;1383130;89;20256;-90
2021/09/21 23:25:41;;;;;;;;;;;;;;;11.08;76.51;101099.13;1382929;89;20263;-90
2021/09/21 23:28:10;;;;;;;;;;;;;;;11.04;76.20;101096.38;1383151;89;20263;-89
2021/09/21 23:30:37;;;;;;;;;;;;;;;11.06;76.34;101099.25;1383108;89;20411;-89
2021/09/21 23:33:07;;;;;;;;;;;;;;;11.07;76.03;101098.27;1383234;89;20263;-91
2021/09/21 23:35:35;;;;;;;;;;;;;;;11.07;75.73;101094.78;1383741;89;20888;-91
2021/09/21 23:38:02;;;;;;;;;;;;;;;11.06;75.11;101095.77;1383168;89;20263;-90
2021/09/21 23:40:32;;;;;;;;;;;;;;;11.10;74.31;101098.48;1384547;89;20255;-91
2021/09/21 23:42:59;;;;;;;;;;;;;;;11.13;73.93;101087.62;1383880;89;20293;-91
2021/09/21 23:45:26;;;;;;;;;;;;;;;11.19;73.97;101084.45;1383812;89;20329;-88
2021/09/21 23:47:55;;;;;;;;;;;;;;;11.20;74.74;101080.82;1383623;89;20326;-90
2021/09/21 23:50:22;;;;;;;;;;;;;;;11.20;74.08;101079.50;1383128;89;20742;-89
2021/09/21 23:52:49;;;;;;;;;;;;;;;11.18;75.69;101080.11;1383212;89;20248;-87
2021/09/21 23:55:21;;;;;;;;;;;;;;;11.16;75.38;101074.09;1382952;89;20233;-90
2021/09/21 23:57:46;;;;;;;;;;;;;;;11.14;75.12;101066.80;1384080;89;20248;-89
